createdAt,value
2017-07-24T00:00:13.438Z,17.8
2017-07-24T00:01:12.920Z,17.8
2017-07-24T00:02:12.632Z,17.8
2017-07-24T00:02:43.036Z,17.8
2017-07-24T00:04:10.925Z,17.6
2017-07-24T00:05:10.151Z,17.6
2017-07-24T00:06:09.346Z,17.6
2017-07-24T00:07:09.050Z,17.6
2017-07-24T00:08:08.270Z,17.6
2017-07-24T00:09:07.491Z,17.6
2017-07-24T00:10:06.690Z,17.5
2017-07-24T00:11:05.893Z,17.5
2017-07-24T00:12:05.082Z,17.5
2017-07-24T00:13:04.781Z,17.5
2017-07-24T00:14:03.985Z,17.4
2017-07-24T00:15:03.192Z,17.3
2017-07-24T00:16:02.267Z,17.3
2017-07-24T00:17:01.363Z,17.3
2017-07-24T00:18:00.844Z,17.3
2017-07-24T00:18:59.938Z,17.3
2017-07-24T00:19:59.644Z,17.3
2017-07-24T00:20:58.736Z,17.3
2017-07-24T00:21:58.216Z,17.3
2017-07-24T00:22:57.417Z,17.3
2017-07-24T00:23:56.628Z,17.3
2017-07-24T00:24:27.141Z,17.3
2017-07-24T00:24:57.540Z,17.3
2017-07-24T00:25:55.219Z,17.3
2017-07-24T00:26:54.217Z,17.3
2017-07-24T00:27:53.929Z,17.3
2017-07-24T00:28:53.020Z,17.3
2017-07-24T00:29:52.222Z,17.3
2017-07-24T00:30:51.306Z,17.3
2017-07-24T00:31:51.023Z,17.3
2017-07-24T00:32:50.230Z,17.3
2017-07-24T00:33:49.430Z,17.3
2017-07-24T00:34:48.514Z,17.3
2017-07-24T00:35:48.234Z,17.3
2017-07-24T00:36:47.320Z,17.3
2017-07-24T00:37:46.513Z,17.3
2017-07-24T00:38:45.717Z,17.3
2017-07-24T00:39:44.676Z,17.2
2017-07-24T00:40:44.144Z,17.2
2017-07-24T00:41:43.848Z,17.1
2017-07-24T00:42:14.352Z,17.1
2017-07-24T00:42:44.626Z,17.1
2017-07-24T00:43:15.002Z,17.1
2017-07-24T00:43:45.279Z,17.1
2017-07-24T00:44:15.678Z,17.1
2017-07-24T00:45:40.433Z,17.1
2017-07-24T00:46:40.021Z,17.1
2017-07-24T00:47:39.239Z,17.2
2017-07-24T00:48:38.425Z,17.1
2017-07-24T00:49:37.496Z,17.1
2017-07-24T00:50:37.079Z,17.1
2017-07-24T00:51:36.273Z,17.1
2017-07-24T00:52:35.361Z,17.1
2017-07-24T00:53:35.066Z,17.1
2017-07-24T00:54:34.272Z,17.1
2017-07-24T00:55:04.679Z,17.1
2017-07-24T00:55:35.062Z,17.1
2017-07-24T00:56:05.574Z,17.1
2017-07-24T00:57:31.830Z,17
2017-07-24T00:58:31.289Z,17
2017-07-24T00:59:30.374Z,17
2017-07-24T01:00:29.575Z,17
2017-07-24T01:01:29.175Z,17
2017-07-24T01:02:28.130Z,17
2017-07-24T01:03:27.323Z,17
2017-07-24T01:04:26.420Z,17
2017-07-24T01:05:26.002Z,17
2017-07-24T01:06:25.210Z,17
2017-07-24T01:07:24.414Z,17
2017-07-24T01:08:23.619Z,17
2017-07-24T01:09:23.330Z,16.9
2017-07-24T01:10:22.525Z,16.8
2017-07-24T01:11:21.603Z,16.8
2017-07-24T01:12:20.796Z,16.8
2017-07-24T01:13:19.989Z,16.8
2017-07-24T01:14:19.189Z,16.8
2017-07-24T01:15:18.776Z,16.8
2017-07-24T01:16:17.980Z,16.8
2017-07-24T01:17:17.168Z,16.8
2017-07-24T01:18:16.141Z,16.8
2017-07-24T01:19:15.843Z,16.8
2017-07-24T01:20:15.044Z,16.7
2017-07-24T01:21:14.017Z,16.7
2017-07-24T01:22:13.223Z,16.7
2017-07-24T01:23:12.814Z,16.7
2017-07-24T01:24:11.773Z,16.7
2017-07-24T01:25:10.977Z,16.7
2017-07-24T01:26:10.692Z,16.6
2017-07-24T01:27:09.896Z,16.6
2017-07-24T01:28:09.103Z,16.6
2017-07-24T01:29:08.313Z,16.6
2017-07-24T01:30:07.407Z,16.6
2017-07-24T01:31:06.719Z,16.6
2017-07-24T01:32:05.920Z,16.6
2017-07-24T01:33:05.011Z,16.6
2017-07-24T01:34:04.719Z,16.6
2017-07-24T01:34:35.221Z,16.6
2017-07-24T01:35:05.614Z,16.6
2017-07-24T01:35:36.117Z,16.6
2017-07-24T01:37:02.408Z,16.6
2017-07-24T01:38:01.504Z,16.6
2017-07-24T01:39:00.461Z,16.6
2017-07-24T01:40:00.159Z,16.6
2017-07-24T01:40:59.242Z,16.6
2017-07-24T01:41:58.446Z,16.6
2017-07-24T01:42:57.660Z,16.6
2017-07-24T01:43:56.855Z,16.5
2017-07-24T01:44:56.553Z,16.5
2017-07-24T01:45:55.744Z,16.5
2017-07-24T01:46:54.932Z,16.5
2017-07-24T01:47:54.007Z,16.5
2017-07-24T01:48:53.107Z,16.5
2017-07-24T01:49:52.816Z,16.5
2017-07-24T01:50:52.022Z,16.5
2017-07-24T01:51:51.211Z,16.5
2017-07-24T01:52:50.289Z,16.5
2017-07-24T01:53:49.485Z,16.5
2017-07-24T01:54:48.689Z,16.5
2017-07-24T01:55:48.285Z,16.5
2017-07-24T01:56:47.368Z,16.5
2017-07-24T01:57:46.574Z,16.5
2017-07-24T01:58:45.770Z,16.5
2017-07-24T01:59:44.974Z,16.5
2017-07-24T02:00:44.183Z,16.5
2017-07-24T02:01:43.913Z,16.4
2017-07-24T02:02:43.107Z,16.4
2017-07-24T02:03:42.315Z,16.4
2017-07-24T02:04:41.280Z,16.4
2017-07-24T02:05:40.481Z,16.5
2017-07-24T02:06:39.689Z,16.5
2017-07-24T02:07:39.052Z,16.5
2017-07-24T02:08:38.646Z,16.5
2017-07-24T02:09:37.726Z,16.5
2017-07-24T02:10:36.698Z,16.5
2017-07-24T02:11:36.402Z,16.5
2017-07-24T02:12:35.604Z,16.4
2017-07-24T02:13:34.811Z,16.4
2017-07-24T02:14:34.011Z,16.4
2017-07-24T02:15:33.098Z,16.4
2017-07-24T02:16:32.180Z,16.4
2017-07-24T02:17:31.886Z,16.4
2017-07-24T02:18:31.113Z,16.4
2017-07-24T02:20:29.205Z,16.3
2017-07-24T02:21:28.399Z,16.3
2017-07-24T02:22:27.987Z,16.3
2017-07-24T02:23:26.964Z,16.3
2017-07-24T02:24:26.163Z,16.3
2017-07-24T02:25:25.615Z,16.3
2017-07-24T02:26:24.805Z,16.3
2017-07-24T02:27:24.311Z,16.3
2017-07-24T02:28:23.513Z,16.3
2017-07-24T02:29:22.706Z,16.3
2017-07-24T02:30:21.908Z,16.3
2017-07-24T02:30:52.194Z,16.3
2017-07-24T02:31:22.707Z,16.3
2017-07-24T02:31:53.218Z,16.3
2017-07-24T02:32:23.751Z,16.3
2017-07-24T02:33:19.427Z,16.3
2017-07-24T02:34:18.641Z,16.3
2017-07-24T02:35:18.345Z,16.3
2017-07-24T02:36:17.555Z,16.3
2017-07-24T02:37:16.757Z,16.3
2017-07-24T02:38:15.943Z,16.3
2017-07-24T02:39:14.906Z,16.3
2017-07-24T02:40:13.738Z,16.3
2017-07-24T02:40:44.626Z,16.3
2017-07-24T02:41:15.019Z,16.2
2017-07-24T02:41:45.424Z,16.2
2017-07-24T02:42:15.928Z,16.1
2017-07-24T02:42:46.334Z,16.1
2017-07-24T02:43:16.739Z,16.1
2017-07-24T02:43:47.124Z,16.1
2017-07-24T02:45:10.365Z,16.1
2017-07-24T02:46:10.077Z,16.1
2017-07-24T02:47:09.279Z,16.1
2017-07-24T02:48:08.477Z,16.1
2017-07-24T02:49:07.671Z,16.1
2017-07-24T02:50:06.872Z,16.1
2017-07-24T02:51:06.077Z,16.1
2017-07-24T02:52:05.260Z,16.1
2017-07-24T02:53:04.329Z,16.1
2017-07-24T02:54:03.516Z,16.1
2017-07-24T02:55:03.214Z,16.1
2017-07-24T02:56:02.441Z,16.1
2017-07-24T02:57:01.635Z,16.1
2017-07-24T02:58:00.848Z,16.1
2017-07-24T02:58:59.915Z,16.1
2017-07-24T02:59:58.994Z,16.1
2017-07-24T03:00:29.410Z,16.1
2017-07-24T03:00:59.911Z,16.1
2017-07-24T03:01:57.230Z,16.1
2017-07-24T03:02:56.819Z,16.1
2017-07-24T03:03:55.780Z,16.1
2017-07-24T03:04:55.358Z,16.1
2017-07-24T03:05:54.562Z,16.1
2017-07-24T03:06:54.027Z,16.1
2017-07-24T03:07:53.223Z,16.1
2017-07-24T03:08:52.416Z,16.2
2017-07-24T03:09:51.613Z,16.2
2017-07-24T03:10:50.812Z,16.2
2017-07-24T03:11:50.007Z,16.2
2017-07-24T03:12:48.970Z,16.2
2017-07-24T03:14:48.050Z,16.2
2017-07-24T03:16:46.012Z,16.1
2017-07-24T03:17:45.471Z,16.1
2017-07-24T03:18:44.663Z,16.1
2017-07-24T03:19:43.731Z,16.1
2017-07-24T03:20:43.186Z,16.1
2017-07-24T03:21:42.376Z,16.1
2017-07-24T03:22:12.759Z,16.1
2017-07-24T03:23:40.916Z,16.1
2017-07-24T03:24:40.513Z,16.2
2017-07-24T03:25:39.715Z,16.2
2017-07-24T03:26:38.907Z,16.2
2017-07-24T03:27:38.092Z,16.2
2017-07-24T03:28:37.297Z,16.2
2017-07-24T03:29:36.490Z,16.2
2017-07-24T03:30:35.702Z,16.2
2017-07-24T03:31:34.935Z,16.2
2017-07-24T03:32:34.135Z,16.2
2017-07-24T03:33:33.334Z,16.2
2017-07-24T03:34:32.909Z,16.2
2017-07-24T03:35:03.308Z,16.2
2017-07-24T03:35:33.581Z,16.2
2017-07-24T03:36:31.156Z,16.2
2017-07-24T03:37:30.345Z,16.2
2017-07-24T03:38:29.287Z,16.2
2017-07-24T03:39:28.964Z,16.2
2017-07-24T03:40:28.168Z,16.2
2017-07-24T03:41:27.003Z,16.2
2017-07-24T03:42:26.606Z,16.2
2017-07-24T03:43:25.802Z,16.2
2017-07-24T03:44:24.999Z,16.2
2017-07-24T03:45:24.197Z,16.1
2017-07-24T03:46:23.424Z,16.1
2017-07-24T03:47:22.641Z,16.1
2017-07-24T03:48:21.718Z,16.1
2017-07-24T03:49:21.415Z,16.1
2017-07-24T03:50:20.481Z,16.1
2017-07-24T03:51:19.567Z,16.1
2017-07-24T03:52:18.642Z,16.1
2017-07-24T03:53:18.225Z,16
2017-07-24T03:53:48.501Z,16
2017-07-24T03:55:16.874Z,16
2017-07-24T03:56:15.829Z,16
2017-07-24T03:57:15.037Z,16
2017-07-24T03:58:14.119Z,16
2017-07-24T03:59:13.797Z,16
2017-07-24T04:00:12.878Z,16
2017-07-24T04:01:12.054Z,16
2017-07-24T04:02:11.245Z,16
2017-07-24T04:03:10.329Z,16
2017-07-24T04:04:10.047Z,16
2017-07-24T04:05:08.898Z,15.9
2017-07-24T04:06:08.125Z,15.8
2017-07-24T04:07:07.817Z,15.9
2017-07-24T04:09:05.887Z,15.8
2017-07-24T04:10:05.091Z,15.8
2017-07-24T04:11:04.795Z,15.8
2017-07-24T04:12:03.878Z,15.8
2017-07-24T04:13:03.066Z,15.8
2017-07-24T04:14:02.258Z,15.9
2017-07-24T04:15:01.326Z,15.9
2017-07-24T04:16:00.774Z,15.9
2017-07-24T04:16:59.858Z,15.9
2017-07-24T04:17:59.430Z,15.9
2017-07-24T04:18:58.508Z,16
2017-07-24T04:19:57.587Z,16
2017-07-24T04:20:57.182Z,16
2017-07-24T04:21:56.145Z,16
2017-07-24T04:22:55.219Z,16
2017-07-24T04:23:54.429Z,16
2017-07-24T04:24:54.121Z,16
2017-07-24T04:25:53.077Z,16.1
2017-07-24T04:26:52.281Z,16.1
2017-07-24T04:27:51.477Z,16.1
2017-07-24T04:28:50.689Z,16.1
2017-07-24T04:29:21.214Z,16.1
2017-07-24T04:29:51.719Z,16.1
2017-07-24T04:30:22.225Z,16.1
2017-07-24T04:31:48.599Z,16.1
2017-07-24T04:32:47.783Z,16.1
2017-07-24T04:33:46.628Z,16.1
2017-07-24T04:34:46.339Z,16.2
2017-07-24T04:35:45.410Z,16.2
2017-07-24T04:36:44.491Z,16.2
2017-07-24T04:37:44.201Z,16.2
2017-07-24T04:38:43.397Z,16.3
2017-07-24T04:39:42.586Z,16.3
2017-07-24T04:40:41.777Z,16.3
2017-07-24T04:41:40.985Z,16.3
2017-07-24T04:42:40.181Z,16.3
2017-07-24T04:43:39.263Z,16.4
2017-07-24T04:44:38.500Z,16.4
2017-07-24T04:45:38.081Z,16.4
2017-07-24T04:46:37.261Z,16.4
2017-07-24T04:47:36.455Z,16.5
2017-07-24T04:48:35.646Z,16.5
2017-07-24T04:49:06.173Z,16.5
2017-07-24T04:49:36.686Z,16.5
2017-07-24T04:50:07.203Z,16.5
2017-07-24T04:51:33.455Z,16.5
2017-07-24T04:52:32.648Z,16.4
2017-07-24T04:53:31.853Z,16.4
2017-07-24T04:54:30.942Z,16.5
2017-07-24T04:55:30.007Z,16.5
2017-07-24T04:56:29.593Z,16.5
2017-07-24T04:57:28.806Z,16.5
2017-07-24T04:58:27.771Z,16.5
2017-07-24T04:58:58.272Z,16.5
2017-07-24T04:59:28.668Z,16.5
2017-07-24T04:59:59.048Z,16.5
2017-07-24T05:00:29.439Z,16.6
2017-07-24T05:00:59.951Z,16.6
2017-07-24T05:01:30.459Z,16.5
2017-07-24T05:02:00.881Z,16.5
2017-07-24T05:03:24.236Z,16.6
2017-07-24T05:04:23.185Z,16.6
2017-07-24T05:05:22.888Z,16.6
2017-07-24T05:06:22.102Z,16.6
2017-07-24T05:07:21.074Z,16.6
2017-07-24T05:08:20.652Z,16.6
2017-07-24T05:09:19.842Z,16.7
2017-07-24T05:10:19.044Z,16.7
2017-07-24T05:11:18.244Z,16.8
2017-07-24T05:12:17.444Z,16.8
2017-07-24T05:13:16.647Z,16.8
2017-07-24T05:14:15.838Z,16.8
2017-07-24T05:15:15.418Z,16.8
2017-07-24T05:16:14.128Z,16.8
2017-07-24T05:17:13.702Z,16.8
2017-07-24T05:18:12.889Z,16.8
2017-07-24T05:19:12.102Z,16.9
2017-07-24T05:20:11.294Z,16.9
2017-07-24T05:21:10.580Z,16.9
2017-07-24T05:22:10.288Z,17
2017-07-24T05:24:08.395Z,17
2017-07-24T05:25:07.971Z,17
2017-07-24T05:26:07.163Z,17
2017-07-24T05:27:06.351Z,17.1
2017-07-24T05:28:06.115Z,17.1
2017-07-24T05:29:04.800Z,17.1
2017-07-24T05:30:03.627Z,17.1
2017-07-24T05:31:03.323Z,17.1
2017-07-24T05:32:02.541Z,17.1
2017-07-24T05:33:01.283Z,17
2017-07-24T05:34:00.852Z,17
2017-07-24T05:35:00.439Z,17.1
2017-07-24T05:35:59.638Z,17.1
2017-07-24T05:36:58.711Z,17.1
2017-07-24T05:37:57.915Z,17.1
2017-07-24T05:38:57.098Z,17.2
2017-07-24T05:39:56.804Z,17.2
2017-07-24T05:40:55.999Z,17.3
2017-07-24T05:41:26.499Z,17.3
2017-07-24T05:41:56.895Z,17.3
2017-07-24T05:42:27.289Z,17.3
2017-07-24T05:43:53.549Z,17.3
2017-07-24T05:44:52.738Z,17.3
2017-07-24T05:45:51.936Z,17.4
2017-07-24T05:46:51.402Z,17.4
2017-07-24T05:47:50.614Z,17.4
2017-07-24T05:48:49.815Z,17.5
2017-07-24T05:49:49.027Z,17.5
2017-07-24T05:50:48.101Z,17.5
2017-07-24T05:51:47.661Z,17.5
2017-07-24T05:52:18.050Z,17.5
2017-07-24T05:52:48.318Z,17.6
2017-07-24T05:53:18.981Z,17.6
2017-07-24T05:53:49.247Z,17.6
2017-07-24T05:54:45.424Z,17.6
2017-07-24T05:55:44.613Z,17.7
2017-07-24T05:56:43.816Z,17.7
2017-07-24T05:57:43.014Z,17.7
2017-07-24T05:58:42.702Z,17.8
2017-07-24T06:00:40.782Z,17.8
2017-07-24T06:01:40.482Z,17.8
2017-07-24T06:02:39.558Z,17.8
2017-07-24T06:03:38.737Z,17.8
2017-07-24T06:04:37.927Z,17.9
2017-07-24T06:05:37.121Z,18
2017-07-24T06:06:36.712Z,18
2017-07-24T06:07:35.786Z,18
2017-07-24T06:08:34.865Z,18.1
2017-07-24T06:09:34.568Z,18.2
2017-07-24T06:10:33.531Z,18.3
2017-07-24T06:11:32.726Z,18.4
2017-07-24T06:12:32.317Z,18.5
2017-07-24T06:13:31.525Z,18.6
2017-07-24T06:14:30.617Z,18.8
2017-07-24T06:15:29.569Z,18.8
2017-07-24T06:16:29.268Z,19
2017-07-24T06:17:28.467Z,19
2017-07-24T06:17:58.970Z,19
2017-07-24T06:19:27.377Z,19.3
2017-07-24T06:20:26.184Z,19.4
2017-07-24T06:21:25.652Z,19.5
2017-07-24T06:23:24.236Z,19.5
2017-07-24T06:24:23.419Z,19.5
2017-07-24T06:25:22.617Z,19.6
2017-07-24T06:26:22.321Z,19.6
2017-07-24T06:27:21.510Z,19.6
2017-07-24T06:28:20.719Z,19.6
2017-07-24T06:29:19.917Z,19.6
2017-07-24T06:30:19.006Z,19.6
2017-07-24T06:31:18.903Z,19.6
2017-07-24T06:32:17.593Z,19.6
2017-07-24T06:33:17.300Z,19.6
2017-07-24T06:34:16.504Z,19.6
2017-07-24T06:35:15.580Z,19.6
2017-07-24T06:36:14.769Z,19.6
2017-07-24T06:37:14.473Z,19.6
2017-07-24T06:37:44.747Z,19.6
2017-07-24T06:39:12.646Z,19.6
2017-07-24T06:40:12.253Z,19.6
2017-07-24T06:41:11.459Z,19.6
2017-07-24T06:42:10.537Z,19.6
2017-07-24T06:43:09.734Z,19.6
2017-07-24T06:44:09.437Z,19.6
2017-07-24T06:45:08.511Z,19.6
2017-07-24T06:46:07.743Z,19.6
2017-07-24T06:47:07.206Z,19.6
2017-07-24T06:47:37.611Z,19.6
2017-07-24T06:48:07.778Z,19.6
2017-07-24T06:48:38.288Z,19.6
2017-07-24T06:49:08.802Z,19.6
2017-07-24T06:49:39.182Z,19.6
2017-07-24T06:50:09.693Z,19.6
2017-07-24T06:50:40.079Z,19.6
2017-07-24T06:52:03.430Z,19.6
2017-07-24T06:53:03.140Z,19.6
2017-07-24T06:54:02.328Z,19.6
2017-07-24T06:55:01.413Z,19.6
2017-07-24T06:56:00.616Z,19.6
2017-07-24T06:57:00.184Z,19.6
2017-07-24T06:57:59.381Z,19.6
2017-07-24T06:58:58.574Z,19.6
2017-07-24T06:59:29.082Z,19.6
2017-07-24T06:59:59.478Z,19.6
2017-07-24T07:00:29.753Z,19.6
2017-07-24T07:01:00.257Z,19.6
2017-07-24T07:01:30.782Z,19.6
2017-07-24T07:02:56.030Z,19.6
2017-07-24T07:03:55.246Z,19.6
2017-07-24T07:04:54.201Z,19.6
2017-07-24T07:05:53.778Z,19.6
2017-07-24T07:06:52.976Z,19.6
2017-07-24T07:07:52.555Z,19.6
2017-07-24T07:08:51.650Z,19.6
2017-07-24T07:09:51.356Z,19.6
2017-07-24T07:10:50.563Z,19.6
2017-07-24T07:11:49.536Z,19.6
2017-07-24T07:12:19.945Z,19.6
2017-07-24T07:12:50.338Z,19.6
2017-07-24T07:13:48.412Z,19.6
2017-07-24T07:14:47.488Z,19.6
2017-07-24T07:15:47.178Z,19.6
2017-07-24T07:16:46.258Z,19.6
2017-07-24T07:17:45.467Z,19.6
2017-07-24T07:18:15.968Z,19.6
2017-07-24T07:18:46.471Z,19.6
2017-07-24T07:19:16.858Z,19.6
2017-07-24T07:19:47.116Z,19.6
2017-07-24T07:20:17.620Z,19.6
2017-07-24T07:20:48.112Z,19.6
2017-07-24T07:21:42.772Z,19.6
2017-07-24T07:22:41.956Z,19.6
2017-07-24T07:23:41.542Z,19.6
2017-07-24T07:24:40.499Z,19.6
2017-07-24T07:25:40.075Z,19.6
2017-07-24T07:26:39.662Z,19.6
2017-07-24T07:27:38.856Z,19.6
2017-07-24T07:28:37.926Z,19.6
2017-07-24T07:29:08.433Z,19.6
2017-07-24T07:29:38.941Z,19.6
2017-07-24T07:30:09.334Z,19.6
2017-07-24T07:30:39.838Z,19.6
2017-07-24T07:31:10.377Z,19.6
2017-07-24T07:31:40.887Z,19.6
2017-07-24T07:32:11.399Z,19.6
2017-07-24T07:33:34.527Z,19.6
2017-07-24T07:34:34.241Z,19.6
2017-07-24T07:35:33.194Z,19.6
2017-07-24T07:36:32.539Z,19.6
2017-07-24T07:37:32.240Z,19.6
2017-07-24T07:38:31.210Z,19.6
2017-07-24T07:39:30.676Z,19.6
2017-07-24T07:40:01.066Z,19.6
2017-07-24T07:40:31.569Z,19.6
2017-07-24T07:41:02.071Z,19.6
2017-07-24T07:41:32.610Z,19.6
2017-07-24T07:42:02.878Z,19.6
2017-07-24T07:43:28.123Z,19.6
2017-07-24T07:44:27.331Z,19.6
2017-07-24T07:45:26.532Z,19.6
2017-07-24T07:46:26.217Z,19.6
2017-07-24T07:47:25.411Z,19.6
2017-07-24T07:48:24.607Z,19.6
2017-07-24T07:49:24.294Z,19.6
2017-07-24T07:50:23.253Z,19.6
2017-07-24T07:51:22.840Z,19.6
2017-07-24T07:52:22.040Z,19.6
2017-07-24T07:53:21.640Z,19.6
2017-07-24T07:54:20.724Z,19.6
2017-07-24T07:55:19.923Z,19.6
2017-07-24T07:56:19.513Z,19.6
2017-07-24T07:57:18.710Z,19.6
2017-07-24T07:58:18.059Z,19.6
2017-07-24T07:59:17.146Z,19.6
2017-07-24T08:00:16.845Z,19.6
2017-07-24T08:01:15.907Z,19.6
2017-07-24T08:02:15.486Z,19.6
2017-07-24T08:03:14.687Z,19.6
2017-07-24T08:04:14.385Z,19.6
2017-07-24T08:05:13.580Z,19.6
2017-07-24T08:06:12.919Z,19.6
2017-07-24T08:07:11.894Z,19.6
2017-07-24T08:08:11.377Z,19.6
2017-07-24T08:09:10.560Z,19.6
2017-07-24T08:10:10.269Z,19.6
2017-07-24T08:11:09.350Z,19.6
2017-07-24T08:12:08.926Z,19.6
2017-07-24T08:12:39.241Z,19.6
2017-07-24T08:13:09.630Z,19.6
2017-07-24T08:14:07.712Z,19.6
2017-07-24T08:15:06.905Z,19.6
2017-07-24T08:16:06.094Z,19.6
2017-07-24T08:17:05.789Z,19.6
2017-07-24T08:18:04.992Z,19.6
2017-07-24T08:19:04.070Z,19.6
2017-07-24T08:20:03.654Z,19.6
2017-07-24T08:21:02.850Z,19.6
2017-07-24T08:22:02.543Z,19.6
2017-07-24T08:23:01.638Z,19.6
2017-07-24T08:24:01.214Z,19.6
2017-07-24T08:25:00.297Z,19.6
2017-07-24T08:25:59.998Z,19.6
2017-07-24T08:26:59.070Z,19.6
2017-07-24T08:27:29.452Z,19.6
2017-07-24T08:27:59.843Z,19.6
2017-07-24T08:28:30.231Z,19.6
2017-07-24T08:29:57.099Z,19.6
2017-07-24T08:30:56.807Z,19.6
2017-07-24T08:31:56.013Z,19.6
2017-07-24T08:32:55.206Z,19.6
2017-07-24T08:33:54.912Z,19.6
2017-07-24T08:34:54.102Z,19.6
2017-07-24T08:35:53.688Z,19.6
2017-07-24T08:36:52.873Z,19.6
2017-07-24T08:37:52.467Z,19.6
2017-07-24T08:38:22.971Z,19.6
2017-07-24T08:38:53.243Z,19.6
2017-07-24T08:39:23.622Z,19.6
2017-07-24T08:40:50.379Z,19.6
2017-07-24T08:41:49.464Z,19.6
2017-07-24T08:42:48.806Z,19.6
2017-07-24T08:43:48.166Z,19.6
2017-07-24T08:44:47.856Z,19.6
2017-07-24T08:45:47.054Z,19.6
2017-07-24T08:46:46.785Z,19.6
2017-07-24T08:47:45.863Z,19.6
2017-07-24T08:48:45.318Z,19.6
2017-07-24T08:49:44.507Z,19.6
2017-07-24T08:50:14.901Z,19.6
2017-07-24T08:50:45.184Z,19.6
2017-07-24T08:51:15.569Z,19.6
2017-07-24T08:51:46.063Z,19.6
2017-07-24T08:52:42.631Z,19.6
2017-07-24T08:53:42.339Z,19.6
2017-07-24T08:54:41.440Z,19.6
2017-07-24T08:55:41.141Z,19.6
2017-07-24T08:56:40.345Z,19.6
2017-07-24T08:57:39.553Z,19.6
2017-07-24T08:58:39.253Z,19.6
2017-07-24T08:59:38.452Z,19.6
2017-07-24T09:00:37.402Z,19.6
2017-07-24T09:01:36.973Z,19.6
2017-07-24T09:02:36.663Z,19.6
2017-07-24T09:03:35.634Z,19.6
2017-07-24T09:04:35.205Z,19.6
2017-07-24T09:05:34.783Z,19.6
2017-07-24T09:06:33.865Z,19.6
2017-07-24T09:07:33.577Z,19.6
2017-07-24T09:08:03.969Z,19.6
2017-07-24T09:08:34.488Z,19.6
2017-07-24T09:09:04.871Z,19.6
2017-07-24T09:09:35.248Z,19.6
2017-07-24T09:10:05.632Z,19.6
2017-07-24T09:11:30.886Z,19.6
2017-07-24T09:12:29.968Z,19.6
2017-07-24T09:13:29.422Z,19.6
2017-07-24T09:14:28.768Z,19.6
2017-07-24T09:15:28.466Z,19.6
2017-07-24T09:16:27.540Z,19.6
2017-07-24T09:17:27.014Z,19.6
2017-07-24T09:18:26.469Z,19.6
2017-07-24T09:18:57.027Z,19.6
2017-07-24T09:19:27.538Z,19.6
2017-07-24T09:19:57.810Z,19.6
2017-07-24T09:20:28.090Z,19.6
2017-07-24T09:20:58.603Z,19.6
2017-07-24T09:21:29.128Z,19.6
2017-07-24T09:21:59.533Z,19.6
2017-07-24T09:22:30.050Z,19.6
2017-07-24T09:23:00.557Z,19.6
2017-07-24T09:24:23.179Z,19.6
2017-07-24T09:25:22.252Z,19.6
2017-07-24T09:26:21.827Z,19.6
2017-07-24T09:27:20.783Z,19.6
2017-07-24T09:28:20.485Z,19.6
2017-07-24T09:29:19.700Z,19.6
2017-07-24T09:30:19.399Z,19.6
2017-07-24T09:31:18.373Z,19.6
2017-07-24T09:31:48.883Z,19.6
2017-07-24T09:32:19.277Z,19.6
2017-07-24T09:32:49.775Z,19.6
2017-07-24T09:33:20.270Z,19.6
2017-07-24T09:34:16.975Z,19.6
2017-07-24T09:35:16.067Z,19.6
2017-07-24T09:36:15.778Z,19.6
2017-07-24T09:37:14.627Z,19.6
2017-07-24T09:39:13.466Z,19.6
2017-07-24T09:40:13.049Z,19.6
2017-07-24T09:41:12.130Z,19.6
2017-07-24T09:42:11.702Z,19.6
2017-07-24T09:43:11.278Z,19.6
2017-07-24T09:44:10.467Z,19.6
2017-07-24T09:45:10.043Z,19.6
2017-07-24T09:46:09.509Z,19.6
2017-07-24T09:47:08.702Z,19.6
2017-07-24T09:48:08.286Z,19.6
2017-07-24T09:49:07.359Z,19.6
2017-07-24T09:50:07.051Z,19.6
2017-07-24T09:51:06.638Z,19.6
2017-07-24T09:51:37.018Z,19.6
2017-07-24T09:52:07.408Z,19.6
2017-07-24T09:52:37.916Z,19.6
2017-07-24T09:54:04.679Z,19.6
2017-07-24T09:55:03.524Z,19.6
2017-07-24T09:56:03.238Z,19.6
2017-07-24T09:57:02.967Z,19.6
2017-07-24T09:58:02.169Z,19.6
2017-07-24T09:59:01.753Z,19.6
2017-07-24T10:00:00.842Z,19.6
2017-07-24T10:01:00.425Z,19.6
2017-07-24T10:01:59.503Z,19.6
2017-07-24T10:02:30.014Z,19.6
2017-07-24T10:03:00.406Z,19.6
2017-07-24T10:03:30.776Z,19.6
2017-07-24T10:04:01.166Z,19.6
2017-07-24T10:04:57.842Z,19.6
2017-07-24T10:05:57.425Z,19.6
2017-07-24T10:06:56.608Z,19.6
2017-07-24T10:07:56.305Z,19.6
2017-07-24T10:08:55.397Z,19.6
2017-07-24T10:09:55.095Z,19.6
2017-07-24T10:10:54.175Z,19.6
2017-07-24T10:11:53.871Z,19.6
2017-07-24T10:12:53.075Z,19.6
2017-07-24T10:13:52.648Z,19.6
2017-07-24T10:14:51.865Z,19.6
2017-07-24T10:15:51.570Z,19.6
2017-07-24T10:16:50.760Z,19.6
2017-07-24T10:18:49.355Z,19.6
2017-07-24T10:19:49.062Z,19.6
2017-07-24T10:20:48.032Z,19.6
2017-07-24T10:21:47.886Z,19.6
2017-07-24T10:22:46.735Z,19.6
2017-07-24T10:23:46.825Z,19.6
2017-07-24T10:24:45.785Z,19.6
2017-07-24T10:25:45.360Z,19.6
2017-07-24T10:26:45.067Z,19.6
2017-07-24T10:27:44.136Z,19.6
2017-07-24T10:28:14.510Z,19.6
2017-07-24T10:28:44.921Z,19.6
2017-07-24T10:29:15.181Z,19.6
2017-07-24T10:30:42.440Z,19.6
2017-07-24T10:31:41.922Z,19.6
2017-07-24T10:32:41.013Z,19.6
2017-07-24T10:33:40.582Z,19.6
2017-07-24T10:34:40.047Z,19.6
2017-07-24T10:35:39.650Z,19.6
2017-07-24T10:36:38.606Z,19.6
2017-07-24T10:37:38.305Z,19.6
2017-07-24T10:38:38.016Z,19.6
2017-07-24T10:39:37.087Z,19.6
2017-07-24T10:40:36.784Z,19.6
2017-07-24T10:41:35.742Z,19.6
2017-07-24T10:42:35.452Z,19.6
2017-07-24T10:43:34.919Z,19.6
2017-07-24T10:44:34.116Z,19.6
2017-07-24T10:45:33.809Z,19.6
2017-07-24T10:46:32.883Z,19.6
2017-07-24T10:47:32.590Z,19.6
2017-07-24T10:48:32.365Z,19.6
2017-07-24T10:49:02.250Z,19.6
2017-07-24T10:50:30.920Z,19.6
2017-07-24T10:52:29.393Z,19.6
2017-07-24T10:53:29.111Z,19.6
2017-07-24T10:54:28.315Z,19.6
2017-07-24T10:55:27.795Z,19.6
2017-07-24T10:56:27.387Z,19.6
2017-07-24T10:57:26.411Z,19.6
2017-07-24T10:58:26.125Z,19.6
2017-07-24T10:58:56.395Z,19.6
2017-07-24T10:59:27.159Z,19.6
2017-07-24T10:59:57.565Z,19.6
2017-07-24T11:00:27.830Z,19.6
2017-07-24T11:00:58.327Z,19.6
2017-07-24T11:01:28.608Z,19.6
2017-07-24T11:01:58.993Z,19.6
2017-07-24T11:02:29.259Z,19.6
2017-07-24T11:03:00.044Z,19.6
2017-07-24T11:04:22.655Z,19.6
2017-07-24T11:05:22.235Z,19.6
2017-07-24T11:06:21.703Z,19.6
2017-07-24T11:07:21.278Z,19.6
2017-07-24T11:08:20.478Z,19.6
2017-07-24T11:09:19.553Z,19.6
2017-07-24T11:10:19.249Z,19.6
2017-07-24T11:10:49.649Z,19.6
2017-07-24T11:11:20.048Z,19.6
2017-07-24T11:11:50.438Z,19.6
2017-07-24T11:12:20.843Z,19.6
2017-07-24T11:12:51.124Z,19.6
2017-07-24T11:13:21.523Z,19.6
2017-07-24T11:13:52.022Z,19.6
2017-07-24T11:15:16.258Z,19.6
2017-07-24T11:16:15.849Z,19.6
2017-07-24T11:17:15.430Z,19.6
2017-07-24T11:18:14.508Z,19.6
2017-07-24T11:19:14.090Z,19.6
2017-07-24T11:20:13.657Z,19.6
2017-07-24T11:21:13.238Z,19.6
2017-07-24T11:22:12.599Z,19.6
2017-07-24T11:23:11.930Z,19.6
2017-07-24T11:24:11.623Z,19.6
2017-07-24T11:25:10.830Z,19.6
2017-07-24T11:26:10.417Z,19.6
2017-07-24T11:27:09.597Z,19.6
2017-07-24T11:28:09.048Z,19.6
2017-07-24T11:29:08.631Z,19.6
2017-07-24T11:30:07.733Z,19.6
2017-07-24T11:30:38.243Z,19.6
2017-07-24T11:32:07.137Z,19.6
2017-07-24T11:33:06.342Z,19.6
2017-07-24T11:34:05.931Z,19.6
2017-07-24T11:35:05.143Z,19.6
2017-07-24T11:36:04.839Z,19.6
2017-07-24T11:37:03.799Z,19.6
2017-07-24T11:38:03.380Z,19.6
2017-07-24T11:39:02.956Z,19.6
2017-07-24T11:40:02.653Z,19.6
2017-07-24T11:41:01.730Z,19.6
2017-07-24T11:42:01.319Z,19.6
2017-07-24T11:42:31.719Z,19.6
2017-07-24T11:43:02.123Z,19.6
2017-07-24T11:43:32.669Z,19.6
2017-07-24T11:44:59.557Z,19.6
2017-07-24T11:45:59.009Z,19.6
2017-07-24T11:47:58.111Z,19.6
2017-07-24T11:48:57.309Z,19.6
2017-07-24T11:49:56.894Z,19.6
2017-07-24T11:50:56.095Z,19.6
2017-07-24T11:51:55.824Z,19.6
2017-07-24T11:52:55.296Z,19.6
2017-07-24T11:53:25.793Z,19.6
2017-07-24T11:53:56.306Z,19.6
2017-07-24T11:54:26.464Z,19.6
2017-07-24T11:54:56.846Z,19.6
2017-07-24T11:55:53.523Z,19.6
2017-07-24T11:56:53.098Z,19.6
2017-07-24T11:57:52.286Z,19.6
2017-07-24T11:58:51.986Z,19.6
2017-07-24T11:59:51.210Z,19.6
2017-07-24T12:00:50.793Z,19.6
2017-07-24T12:01:49.981Z,19.6
2017-07-24T12:02:49.333Z,19.6
2017-07-24T12:03:48.919Z,19.6
2017-07-24T12:04:48.367Z,19.6
2017-07-24T12:05:47.840Z,19.6
2017-07-24T12:06:47.438Z,19.6
2017-07-24T12:07:46.634Z,19.6
2017-07-24T12:08:46.333Z,19.6
2017-07-24T12:09:45.915Z,19.6
2017-07-24T12:10:44.876Z,19.6
2017-07-24T12:11:44.567Z,19.6
2017-07-24T12:12:43.759Z,19.6
2017-07-24T12:13:43.226Z,19.6
2017-07-24T12:14:42.931Z,19.6
2017-07-24T12:15:41.879Z,19.6
2017-07-24T12:16:41.566Z,19.6
2017-07-24T12:17:41.272Z,19.6
2017-07-24T12:18:40.376Z,19.6
2017-07-24T12:19:40.079Z,19.6
2017-07-24T12:20:39.780Z,19.6
2017-07-24T12:21:38.962Z,19.6
2017-07-24T12:22:38.671Z,19.6